KSLC/SLC METAR and TAF weather

Enter ICAO airport designator
Station Type Date Time Source
KSLC METAR 2019/02/22 23:54 UTC NOAA

KSLC 222354Z 30011KT 10SM FEW041 SCT070 SCT150 M01/M09 A2997 RMK AO2 SLP168 SH DSNT NE AND SE T10061094 10000 21028 53010


Station Type Date Time Source
KSLC Decoded METAR 2019/02/22 23:54 UTC NOAA

SALT LAKE CITY INTERNATIONAL AIRPORT , UT, United States (KSLC) 40-47N 111-58W 1286M
Feb 22, 2019 - 06:54 PM EST / 2019.02.22 2354 UTC
Wind: from the WNW (300 degrees) at 13 MPH (11 KT):0
Visibility: 10 mile(s):0
Sky conditions: partly cloudy
Temperature: 30.9 F (-0.6 C)
Windchill: 21 F (-6 C):1
Dew Point: 15.1 F (-9.4 C)
Relative Humidity: 51%
Pressure (altimeter): 29.97 in. Hg (1014 hPa)
Pressure tendency: 0.03 inches (1.0 hPa) higher than three hours ago
ob: KSLC 222354Z 30011KT 10SM FEW041 SCT070 SCT150 M01/M09 A2997 RMK AO2 SLP168 SH DSNT NE AND SE T10061094 10000 21028 53010
cycle: 0

Station Type Date Time Source
KSLC TAF 2019/02/22 23:40 UTC NOAA

TAF
AMD KSLC 222238Z 2223/2324 30009KT P6SM SCT025 BKN050
FM222330 33010KT P6SM FEW050
FM230100 34007KT P6SM SKC
FM230500 15005KT P6SM SKC


Example: see airport list